createdAt,value
2023-05-27T00:01:37.366Z,95.33
2023-05-27T00:04:04.786Z,94.52
2023-05-27T00:06:33.431Z,93.70
2023-05-27T00:09:00.559Z,95.17
2023-05-27T00:11:27.918Z,96.10
2023-05-27T00:13:55.878Z,97.35
2023-05-27T00:16:23.189Z,96.02
2023-05-27T00:18:50.390Z,94.55
2023-05-27T00:21:17.747Z,95.18
2023-05-27T00:23:47.962Z,94.14
2023-05-27T00:26:15.004Z,94.82
2023-05-27T00:28:42.978Z,95.12
2023-05-27T00:31:10.578Z,95.76
2023-05-27T00:33:37.679Z,96.40
2023-05-27T00:36:05.444Z,96.41
2023-05-27T00:38:32.619Z,97.37
2023-05-27T00:40:59.645Z,98.43
2023-05-27T00:43:27.918Z,98.29
2023-05-27T00:45:55.532Z,98.80
2023-05-27T00:48:22.842Z,99.80
2023-05-27T00:50:51.116Z,99.89
2023-05-27T00:53:18.360Z,99.78
2023-05-27T00:55:45.412Z,100.00
2023-05-27T00:58:12.761Z,99.59
2023-05-27T01:00:40.529Z,99.21
2023-05-27T01:03:09.668Z,97.24
2023-05-27T01:05:36.969Z,97.48
2023-05-27T01:08:13.440Z,98.00
2023-05-27T01:10:53.698Z,96.84
2023-05-27T01:13:41.127Z,96.06
2023-05-27T01:16:11.976Z,96.13
2023-05-27T01:18:39.117Z,96.38
2023-05-27T01:21:07.353Z,97.68
2023-05-27T01:23:34.748Z,97.76
2023-05-27T01:26:02.132Z,98.59
2023-05-27T01:28:29.342Z,99.38
2023-05-27T01:30:56.709Z,99.96
2023-05-27T01:33:25.063Z,98.60
2023-05-27T01:35:53.409Z,98.13
2023-05-27T01:38:21.107Z,99.25
2023-05-27T01:40:49.086Z,100.00
2023-05-27T01:43:17.060Z,100.00
2023-05-27T01:45:44.623Z,100.00
2023-05-27T01:48:11.701Z,100.00
2023-05-27T01:50:39.423Z,100.00
2023-05-27T01:53:06.881Z,100.00
2023-05-27T01:55:34.540Z,100.00
2023-05-27T01:58:01.894Z,100.00
2023-05-27T02:00:30.668Z,100.00
2023-05-27T02:02:58.033Z,100.00
2023-05-27T02:05:25.289Z,100.00
2023-05-27T02:07:53.159Z,100.00
2023-05-27T02:10:20.194Z,100.00
2023-05-27T02:12:49.722Z,100.00
2023-05-27T02:15:17.167Z,100.00
2023-05-27T02:17:47.627Z,100.00
2023-05-27T02:20:16.157Z,100.00
2023-05-27T02:22:44.950Z,100.00
2023-05-27T02:25:13.133Z,100.00
2023-05-27T02:27:40.202Z,100.00
2023-05-27T02:30:08.362Z,100.00
2023-05-27T02:32:35.452Z,100.00
2023-05-27T02:35:04.389Z,100.00
2023-05-27T02:37:31.632Z,100.00
2023-05-27T02:39:59.099Z,100.00
2023-05-27T02:42:26.109Z,100.00
2023-05-27T02:44:53.191Z,100.00
2023-05-27T02:47:20.356Z,100.00
2023-05-27T02:49:47.389Z,100.00
2023-05-27T02:52:14.641Z,100.00
2023-05-27T02:54:42.604Z,100.00
2023-05-27T02:57:10.166Z,100.00
2023-05-27T02:59:38.020Z,100.00
2023-05-27T03:02:05.937Z,100.00
2023-05-27T03:04:33.142Z,100.00
2023-05-27T03:07:00.186Z,100.00
2023-05-27T03:09:27.246Z,100.00
2023-05-27T03:11:54.284Z,100.00
2023-05-27T03:14:21.534Z,100.00
2023-05-27T03:16:48.596Z,100.00
2023-05-27T03:19:16.033Z,100.00
2023-05-27T03:21:43.192Z,100.00
2023-05-27T03:24:11.866Z,100.00
2023-05-27T03:26:39.534Z,100.00
2023-05-27T03:29:07.907Z,100.00
2023-05-27T03:31:35.124Z,100.00
2023-05-27T03:34:06.743Z,100.00
2023-05-27T03:36:38.264Z,100.00
2023-05-27T03:39:05.936Z,100.00
2023-05-27T03:41:34.016Z,100.00
2023-05-27T03:44:01.045Z,100.00
2023-05-27T03:46:28.312Z,100.00
2023-05-27T03:48:55.663Z,100.00
2023-05-27T03:51:23.313Z,100.00
2023-05-27T03:53:51.621Z,100.00
2023-05-27T03:56:18.967Z,100.00
2023-05-27T03:58:46.849Z,100.00
2023-05-27T04:01:14.064Z,100.00
2023-05-27T04:03:41.547Z,100.00
2023-05-27T04:06:08.670Z,100.00
2023-05-27T04:08:36.826Z,100.00
2023-05-27T04:11:04.294Z,100.00
2023-05-27T04:13:31.554Z,99.82
2023-05-27T04:15:59.148Z,98.95
2023-05-27T04:18:26.257Z,96.69
2023-05-27T04:20:53.872Z,96.25
2023-05-27T04:23:21.558Z,94.36
2023-05-27T04:25:50.169Z,94.23
2023-05-27T04:28:18.843Z,95.68
2023-05-27T04:30:49.788Z,94.04
2023-05-27T04:33:24.016Z,95.50
2023-05-27T04:35:54.942Z,96.00
2023-05-27T04:38:23.214Z,95.90
2023-05-27T04:40:56.913Z,92.93
2023-05-27T04:44:02.688Z,90.05
2023-05-27T04:46:35.103Z,88.16
2023-05-27T04:49:02.824Z,84.68
2023-05-27T04:51:30.166Z,84.78
2023-05-27T04:53:58.045Z,85.40
2023-05-27T04:56:25.284Z,87.37
2023-05-27T04:58:52.641Z,85.89
2023-05-27T05:01:25.948Z,86.30
2023-05-27T05:04:13.940Z,84.49
2023-05-27T05:06:52.282Z,83.29
2023-05-27T05:09:19.330Z,80.72
2023-05-27T05:11:46.687Z,78.31
2023-05-27T05:14:14.234Z,78.74
2023-05-27T05:16:43.302Z,79.87
2023-05-27T05:19:11.293Z,77.30
2023-05-27T05:21:39.878Z,75.38
2023-05-27T05:24:09.498Z,75.44
2023-05-27T05:26:37.245Z,75.86
2023-05-27T05:29:05.443Z,72.85
2023-05-27T05:31:32.635Z,71.43
2023-05-27T05:34:00.159Z,71.62
2023-05-27T05:36:27.591Z,69.97
2023-05-27T05:38:58.316Z,69.63
2023-05-27T05:41:27.361Z,71.60
2023-05-27T05:43:56.001Z,69.78
2023-05-27T05:46:23.263Z,68.91
2023-05-27T05:48:53.367Z,68.49
2023-05-27T05:51:26.056Z,69.53
2023-05-27T05:53:56.759Z,69.42
2023-05-27T05:56:24.028Z,68.37
2023-05-27T05:58:51.384Z,68.33
2023-05-27T06:01:18.978Z,68.71
2023-05-27T06:03:46.794Z,66.92
2023-05-27T06:06:25.155Z,67.70
2023-05-27T06:09:12.562Z,66.60
2023-05-27T06:11:41.646Z,66.56
2023-05-27T06:14:08.782Z,65.11
2023-05-27T06:16:40.920Z,65.06
2023-05-27T06:19:08.818Z,65.15
2023-05-27T06:21:35.981Z,64.32
2023-05-27T06:24:22.113Z,63.67
2023-05-27T06:26:55.047Z,62.37
2023-05-27T06:29:22.819Z,61.48
2023-05-27T06:31:50.183Z,62.13
2023-05-27T06:34:17.682Z,62.32
2023-05-27T06:36:46.424Z,62.04
2023-05-27T06:39:14.191Z,60.62
2023-05-27T06:41:41.294Z,60.55
2023-05-27T06:44:26.880Z,61.90
2023-05-27T06:47:04.515Z,61.38
2023-05-27T06:49:32.171Z,61.16
2023-05-27T06:52:01.048Z,61.71
2023-05-27T06:54:28.856Z,61.09
2023-05-27T06:57:03.657Z,60.44
2023-05-27T06:59:58.867Z,59.66
2023-05-27T07:02:27.013Z,60.89
2023-05-27T07:04:57.229Z,60.41
2023-05-27T07:07:24.611Z,60.71
2023-05-27T07:09:52.173Z,60.82
2023-05-27T07:12:19.719Z,59.15
2023-05-27T07:14:51.274Z,58.05
2023-05-27T07:17:18.910Z,57.80
2023-05-27T07:19:46.764Z,57.70
2023-05-27T07:22:17.166Z,57.42
2023-05-27T07:24:45.195Z,57.61
2023-05-27T07:27:12.355Z,56.88
2023-05-27T07:29:42.367Z,57.51
2023-05-27T07:32:11.965Z,57.69
2023-05-27T07:34:40.045Z,59.25
2023-05-27T07:37:08.130Z,57.86
2023-05-27T07:39:37.453Z,57.93
2023-05-27T07:42:05.084Z,56.82
2023-05-27T07:44:33.035Z,57.39
2023-05-27T07:47:02.112Z,53.39
2023-05-27T07:49:29.387Z,54.12
2023-05-27T07:52:18.897Z,52.31
2023-05-27T07:54:54.445Z,52.76
2023-05-27T07:57:24.951Z,52.87
2023-05-27T07:59:52.489Z,52.48
2023-05-27T08:02:19.966Z,52.62
2023-05-27T08:04:47.985Z,53.17
2023-05-27T08:07:44.651Z,52.97
2023-05-27T08:10:22.509Z,52.98
2023-05-27T08:13:08.470Z,53.63
2023-05-27T08:15:49.627Z,54.30
2023-05-27T08:18:35.531Z,54.26
2023-05-27T08:21:21.711Z,54.09
2023-05-27T08:24:09.032Z,55.50
2023-05-27T08:26:58.300Z,52.45
2023-05-27T08:29:35.088Z,52.40
2023-05-27T08:32:22.939Z,53.37
2023-05-27T08:34:50.577Z,53.29
2023-05-27T08:37:18.548Z,52.77
2023-05-27T08:39:47.224Z,52.45
2023-05-27T08:42:31.892Z,53.38
2023-05-27T08:44:59.350Z,52.99
2023-05-27T08:47:27.715Z,52.51
2023-05-27T08:49:56.606Z,52.75
2023-05-27T08:52:23.664Z,50.44
2023-05-27T08:54:50.806Z,50.44
2023-05-27T08:57:19.997Z,51.89
2023-05-27T08:59:47.464Z,51.28
2023-05-27T09:02:15.003Z,49.80
2023-05-27T09:04:42.594Z,48.63
2023-05-27T09:07:09.836Z,49.46
2023-05-27T09:09:38.615Z,48.15
2023-05-27T09:12:05.953Z,48.03
2023-05-27T09:14:33.315Z,49.37
2023-05-27T09:17:05.946Z,50.55
2023-05-27T09:19:33.249Z,49.10
2023-05-27T09:22:00.291Z,48.39
2023-05-27T09:24:27.593Z,49.68
2023-05-27T09:26:55.232Z,48.56
2023-05-27T09:29:26.568Z,48.89
2023-05-27T09:31:59.733Z,48.15
2023-05-27T09:34:31.105Z,47.54
2023-05-27T09:36:59.062Z,48.24
2023-05-27T09:39:26.525Z,47.29
2023-05-27T09:41:54.695Z,46.98
2023-05-27T09:44:21.629Z,46.50
2023-05-27T09:46:48.791Z,47.48
2023-05-27T09:49:16.478Z,47.58
2023-05-27T09:51:43.529Z,45.84
2023-05-27T09:54:11.032Z,46.26
2023-05-27T09:56:38.201Z,46.47
2023-05-27T09:59:07.666Z,46.82
2023-05-27T10:01:34.806Z,48.20
2023-05-27T10:04:01.933Z,48.82
2023-05-27T10:06:29.097Z,48.39
2023-05-27T10:08:59.744Z,48.52
2023-05-27T10:11:29.400Z,46.22
2023-05-27T10:13:57.756Z,46.16
2023-05-27T10:16:27.246Z,45.64
2023-05-27T10:18:57.646Z,45.91
2023-05-27T10:21:28.014Z,46.48
2023-05-27T10:24:01.832Z,46.64
2023-05-27T10:26:36.579Z,46.88
2023-05-27T10:29:10.583Z,46.94
2023-05-27T10:31:38.844Z,45.06
2023-05-27T10:34:07.484Z,45.98
2023-05-27T10:36:34.690Z,47.41
2023-05-27T10:39:05.661Z,46.66
2023-05-27T10:41:42.394Z,45.95
2023-05-27T10:44:09.741Z,46.22
2023-05-27T10:46:41.114Z,45.46
2023-05-27T10:49:15.052Z,45.42
2023-05-27T10:51:43.642Z,46.88
2023-05-27T10:56:50.618Z,46.00
2023-05-27T10:59:22.018Z,45.73
2023-05-27T11:01:55.529Z,46.96
2023-05-27T11:04:23.759Z,47.15
2023-05-27T11:07:04.291Z,47.39
2023-05-27T11:09:52.569Z,47.15
2023-05-27T11:12:23.425Z,47.14
2023-05-27T11:14:55.985Z,46.43
2023-05-27T11:17:23.915Z,46.62
2023-05-27T11:19:53.776Z,47.77
2023-05-27T11:22:20.865Z,46.53
2023-05-27T11:25:00.408Z,45.67
2023-05-27T11:27:33.921Z,45.38
2023-05-27T11:30:01.282Z,45.07
2023-05-27T11:32:28.427Z,46.63
2023-05-27T11:34:56.379Z,46.52
2023-05-27T11:37:23.369Z,46.46
2023-05-27T11:39:50.855Z,46.29
2023-05-27T11:42:21.907Z,46.27
2023-05-27T11:44:55.381Z,45.39
2023-05-27T11:47:23.878Z,46.16
2023-05-27T11:49:51.116Z,46.31
2023-05-27T11:52:18.659Z,44.35
2023-05-27T11:54:50.341Z,44.20
2023-05-27T11:57:26.139Z,44.91
2023-05-27T11:59:53.136Z,46.19
2023-05-27T12:02:22.937Z,45.79
2023-05-27T12:04:50.329Z,43.96
2023-05-27T12:07:20.735Z,44.88
2023-05-27T12:09:50.465Z,45.36
2023-05-27T12:12:19.896Z,44.36
2023-05-27T12:14:46.856Z,43.74
2023-05-27T12:17:13.863Z,46.06
2023-05-27T12:19:41.046Z,46.68
2023-05-27T12:22:10.322Z,45.95
2023-05-27T12:24:37.900Z,44.15
2023-05-27T12:27:05.112Z,44.14
2023-05-27T12:29:32.148Z,44.38
2023-05-27T12:31:59.284Z,44.53
2023-05-27T12:34:26.964Z,44.69
2023-05-27T12:36:53.885Z,43.80
2023-05-27T12:39:22.202Z,42.03
2023-05-27T12:41:49.380Z,44.20
2023-05-27T12:44:17.234Z,44.65
2023-05-27T12:46:44.564Z,43.32
2023-05-27T12:49:11.787Z,43.68
2023-05-27T12:51:39.683Z,44.79
2023-05-27T12:54:06.791Z,44.87
2023-05-27T12:56:33.800Z,44.03
2023-05-27T12:59:01.086Z,44.15
2023-05-27T13:01:28.944Z,44.08
2023-05-27T13:03:56.453Z,44.25
2023-05-27T13:06:23.466Z,45.01
2023-05-27T13:08:52.047Z,45.38
2023-05-27T13:11:19.000Z,46.62
2023-05-27T13:13:46.349Z,45.10
2023-05-27T13:16:15.933Z,44.45
2023-05-27T13:18:43.451Z,42.78
2023-05-27T13:21:11.106Z,42.65
2023-05-27T13:23:40.918Z,41.98
2023-05-27T13:26:07.895Z,41.62
2023-05-27T13:28:34.953Z,42.71
2023-05-27T13:31:02.845Z,42.90
2023-05-27T13:33:30.086Z,41.85
2023-05-27T13:35:57.089Z,41.53
2023-05-27T13:38:24.227Z,42.03
2023-05-27T13:40:51.382Z,42.17
2023-05-27T13:43:18.825Z,42.75
2023-05-27T13:45:45.770Z,44.03
2023-05-27T13:48:12.769Z,44.11
2023-05-27T13:50:39.720Z,44.77
2023-05-27T13:53:06.763Z,45.18
2023-05-27T13:55:35.730Z,44.79
2023-05-27T13:58:02.738Z,45.34
2023-05-27T14:00:31.036Z,45.92
2023-05-27T14:03:00.819Z,46.50
2023-05-27T14:05:31.379Z,45.91
2023-05-27T14:07:58.410Z,45.55
2023-05-27T14:10:25.325Z,45.24
2023-05-27T14:12:52.466Z,46.12
2023-05-27T14:15:19.476Z,46.38
2023-05-27T14:17:47.726Z,46.63
2023-05-27T14:20:14.821Z,47.12
2023-05-27T14:22:43.642Z,47.27
2023-05-27T14:25:11.158Z,47.42
2023-05-27T14:27:38.980Z,46.92
2023-05-27T14:30:06.521Z,48.08
2023-05-27T14:32:33.526Z,49.12
2023-05-27T14:35:03.498Z,49.38
2023-05-27T14:37:30.520Z,48.99
2023-05-27T14:39:57.629Z,47.66
2023-05-27T14:42:24.948Z,48.00
2023-05-27T14:44:52.032Z,48.48
2023-05-27T14:47:19.812Z,48.61
2023-05-27T14:49:46.917Z,49.17
2023-05-27T14:52:13.984Z,49.37
2023-05-27T14:54:41.109Z,49.22
2023-05-27T14:57:08.637Z,49.60
2023-05-27T14:59:46.665Z,49.04
2023-05-27T15:02:16.825Z,49.35
2023-05-27T15:04:43.928Z,50.22
2023-05-27T15:07:14.182Z,48.63
2023-05-27T15:09:42.916Z,48.46
2023-05-27T15:12:09.913Z,47.66
2023-05-27T15:14:36.914Z,48.80
2023-05-27T15:17:07.502Z,49.80
2023-05-27T15:19:34.507Z,50.07
2023-05-27T15:22:01.825Z,48.50
2023-05-27T15:24:28.866Z,46.99
2023-05-27T15:26:57.281Z,44.16
2023-05-27T15:29:24.896Z,44.45
2023-05-27T15:31:52.156Z,45.80
2023-05-27T15:34:19.097Z,46.66
2023-05-27T15:36:46.009Z,45.85
2023-05-27T15:39:13.550Z,45.51
2023-05-27T15:41:41.202Z,45.57
2023-05-27T15:44:08.213Z,45.39
2023-05-27T15:46:35.219Z,45.93
2023-05-27T15:49:02.176Z,45.84
2023-05-27T15:51:29.244Z,46.25
2023-05-27T15:53:56.270Z,46.63
2023-05-27T15:56:24.046Z,46.71
2023-05-27T15:58:51.059Z,47.53
2023-05-27T16:01:18.067Z,47.49
2023-05-27T16:03:45.432Z,46.85
2023-05-27T16:06:12.443Z,46.38
2023-05-27T16:08:39.489Z,46.13
2023-05-27T16:11:06.449Z,46.20
2023-05-27T16:13:33.501Z,46.44
2023-05-27T16:16:03.937Z,46.72
2023-05-27T16:18:33.163Z,47.13
2023-05-27T16:21:01.483Z,48.50
2023-05-27T16:23:28.957Z,49.03
2023-05-27T16:25:56.518Z,47.33
2023-05-27T16:28:24.194Z,47.93
2023-05-27T16:30:52.236Z,48.08
2023-05-27T16:33:20.100Z,48.12
2023-05-27T16:35:47.888Z,48.79
2023-05-27T16:38:16.672Z,48.17
2023-05-27T16:40:43.622Z,46.22
2023-05-27T16:43:10.876Z,46.03
2023-05-27T16:45:38.246Z,45.22
2023-05-27T16:48:08.372Z,45.67
2023-05-27T16:50:36.242Z,45.80
2023-05-27T16:53:03.563Z,44.49
2023-05-27T16:55:32.281Z,44.87
2023-05-27T16:57:59.679Z,46.23
2023-05-27T17:00:27.330Z,48.21
2023-05-27T17:02:54.836Z,48.15
2023-05-27T17:05:21.975Z,49.54
2023-05-27T17:07:53.120Z,49.50
2023-05-27T17:10:21.389Z,49.70
2023-05-27T17:12:49.582Z,48.38
2023-05-27T17:15:17.132Z,48.28
2023-05-27T17:17:44.208Z,49.71
2023-05-27T17:20:19.570Z,50.97
2023-05-27T17:22:46.752Z,52.40
2023-05-27T17:25:14.688Z,52.62
2023-05-27T17:27:42.401Z,52.18
2023-05-27T17:30:09.864Z,52.64
2023-05-27T17:32:37.095Z,52.98
2023-05-27T17:35:04.556Z,53.12
2023-05-27T17:37:31.621Z,52.92
2023-05-27T17:39:59.777Z,52.03
2023-05-27T17:42:27.036Z,51.62
2023-05-27T17:44:54.282Z,51.02
2023-05-27T17:47:21.435Z,49.84
2023-05-27T17:49:48.581Z,50.64
2023-05-27T17:52:21.453Z,51.33
2023-05-27T17:54:49.036Z,51.57
2023-05-27T17:57:16.174Z,51.45
2023-05-27T17:59:44.994Z,52.08
2023-05-27T18:02:14.001Z,52.12
2023-05-27T18:04:41.291Z,52.66
2023-05-27T18:07:08.348Z,52.74
2023-05-27T18:09:35.615Z,52.54
2023-05-27T18:12:07.165Z,52.54
2023-05-27T18:14:36.262Z,53.57
2023-05-27T18:17:06.985Z,52.88
2023-05-27T18:19:34.596Z,52.59
2023-05-27T18:22:02.621Z,52.51
2023-05-27T18:24:34.595Z,52.63
2023-05-27T18:27:02.545Z,52.74
2023-05-27T18:29:29.796Z,53.39
2023-05-27T18:31:57.049Z,52.84
2023-05-27T18:34:24.310Z,51.94
2023-05-27T18:36:51.675Z,52.14
2023-05-27T18:39:19.040Z,52.15
2023-05-27T18:41:46.373Z,52.22
2023-05-27T18:44:17.093Z,52.24
2023-05-27T18:46:44.194Z,52.29
2023-05-27T18:49:11.932Z,51.64
2023-05-27T18:51:39.275Z,51.78
2023-05-27T18:54:06.757Z,50.85
2023-05-27T18:56:33.764Z,51.57
2023-05-27T18:59:01.481Z,50.76
2023-05-27T19:01:28.906Z,51.03
2023-05-27T19:03:58.617Z,51.22
2023-05-27T19:06:30.147Z,51.09
2023-05-27T19:08:57.811Z,51.38
2023-05-27T19:11:28.539Z,51.36
2023-05-27T19:13:57.811Z,51.40
2023-05-27T19:16:26.998Z,51.39
2023-05-27T19:18:56.133Z,51.65
2023-05-27T19:21:24.102Z,51.69
2023-05-27T19:23:51.760Z,52.02
2023-05-27T19:26:19.104Z,52.34
2023-05-27T19:28:48.619Z,52.34
2023-05-27T19:31:16.473Z,52.64
2023-05-27T19:33:44.201Z,52.51
2023-05-27T19:36:11.902Z,52.87
2023-05-27T19:38:39.380Z,52.94
2023-05-27T19:41:11.851Z,53.02
2023-05-27T19:43:39.596Z,53.35
2023-05-27T19:46:08.256Z,53.61
2023-05-27T19:48:40.139Z,53.91
2023-05-27T19:51:08.105Z,53.82
2023-05-27T19:53:35.262Z,54.00
2023-05-27T19:56:05.983Z,54.46
2023-05-27T19:58:35.684Z,54.59
2023-05-27T20:01:03.577Z,54.63
2023-05-27T20:03:32.533Z,54.73
2023-05-27T20:06:01.798Z,55.02
2023-05-27T20:08:30.117Z,55.37
2023-05-27T20:10:58.007Z,55.38
2023-05-27T20:13:27.296Z,55.72
2023-05-27T20:15:54.979Z,55.88
2023-05-27T20:18:26.775Z,56.08
2023-05-27T20:20:55.384Z,56.68
2023-05-27T20:23:23.911Z,56.88
2023-05-27T20:25:52.279Z,57.09
2023-05-27T20:28:19.530Z,57.33
2023-05-27T20:30:49.724Z,57.45
2023-05-27T20:33:18.873Z,57.48
2023-05-27T20:35:47.374Z,57.60
2023-05-27T20:38:16.612Z,57.74
2023-05-27T20:40:44.321Z,58.24
2023-05-27T20:43:13.180Z,58.17
2023-05-27T20:45:41.025Z,58.10
2023-05-27T20:48:10.415Z,58.28
2023-05-27T20:50:37.720Z,58.24
2023-05-27T20:53:08.541Z,57.82
2023-05-27T20:55:36.602Z,57.97
2023-05-27T20:58:05.727Z,57.96
2023-05-27T21:00:34.400Z,58.68
2023-05-27T21:03:02.995Z,59.37
2023-05-27T21:05:30.417Z,59.90
2023-05-27T21:07:57.793Z,59.72
2023-05-27T21:10:27.018Z,59.28
2023-05-27T21:12:55.757Z,57.92
2023-05-27T21:15:23.216Z,57.81
2023-05-27T21:17:53.665Z,56.63
2023-05-27T21:20:21.558Z,56.27
2023-05-27T21:22:49.892Z,56.06
2023-05-27T21:25:18.605Z,55.42
2023-05-27T21:27:46.328Z,55.00
2023-05-27T21:30:15.339Z,54.38
2023-05-27T21:32:42.656Z,54.08
2023-05-27T21:35:11.062Z,54.12
2023-05-27T21:37:38.420Z,53.24
2023-05-27T21:40:07.096Z,52.88
2023-05-27T21:42:34.949Z,52.49
2023-05-27T21:45:02.123Z,52.25
2023-05-27T21:47:29.843Z,51.64
2023-05-27T21:49:57.229Z,51.98
2023-05-27T21:52:29.459Z,52.00
2023-05-27T21:54:56.961Z,51.41
2023-05-27T21:57:28.624Z,51.59
2023-05-27T21:59:57.561Z,51.41
2023-05-27T22:02:25.276Z,51.48
2023-05-27T22:04:53.239Z,51.82
2023-05-27T22:07:21.325Z,51.77
2023-05-27T22:09:48.665Z,51.78
2023-05-27T22:12:15.997Z,51.81
2023-05-27T22:14:45.219Z,51.72
2023-05-27T22:17:12.258Z,51.84
2023-05-27T22:19:39.712Z,51.30
2023-05-27T22:22:09.120Z,51.39
2023-05-27T22:24:36.358Z,51.86
2023-05-27T22:27:03.845Z,51.44
2023-05-27T22:29:31.397Z,51.45
2023-05-27T22:31:58.693Z,51.31
2023-05-27T22:34:26.252Z,51.27
2023-05-27T22:36:53.299Z,51.76
2023-05-27T22:39:20.589Z,51.81
2023-05-27T22:41:47.847Z,51.76
2023-05-27T22:44:15.090Z,51.43
2023-05-27T22:46:42.467Z,51.61
2023-05-27T22:49:10.914Z,51.70
2023-05-27T22:51:41.366Z,52.05
2023-05-27T22:54:08.912Z,51.84
2023-05-27T22:56:36.565Z,52.37
2023-05-27T22:59:04.151Z,52.45
2023-05-27T23:01:31.446Z,52.50
2023-05-27T23:03:59.077Z,52.55
2023-05-27T23:06:26.630Z,52.58
2023-05-27T23:08:53.860Z,53.14
2023-05-27T23:11:21.114Z,53.47
2023-05-27T23:13:48.586Z,53.72
2023-05-27T23:16:15.855Z,54.14
2023-05-27T23:18:45.836Z,54.34
2023-05-27T23:21:13.193Z,54.83
2023-05-27T23:23:40.646Z,54.78
2023-05-27T23:26:08.106Z,55.42
2023-05-27T23:28:38.718Z,56.60
2023-05-27T23:31:06.195Z,56.92
2023-05-27T23:33:33.648Z,56.92
2023-05-27T23:36:02.440Z,56.42
2023-05-27T23:38:29.476Z,57.10
2023-05-27T23:40:56.625Z,57.47
2023-05-27T23:43:24.086Z,57.92
2023-05-27T23:45:51.351Z,58.66
2023-05-27T23:48:18.796Z,58.32
2023-05-27T23:50:46.551Z,59.23
2023-05-27T23:53:13.620Z,59.89
2023-05-27T23:55:40.749Z,60.57
2023-05-27T23:58:07.805Z,61.08
